createdAt,value
2023-04-23T07:10:00.456Z,18.00
2023-04-23T07:12:33.739Z,54.80
2023-04-23T07:15:02.653Z,52.40
2023-04-23T07:17:29.303Z,26.40
2023-04-23T07:19:56.149Z,20.40
2023-04-23T07:22:25.730Z,30.20
2023-04-23T07:24:57.928Z,15.90
2023-04-23T07:27:25.588Z,14.90
2023-04-23T07:30:01.427Z,13.50
2023-04-23T07:32:32.470Z,17.20
2023-04-23T07:34:59.079Z,17.00
2023-04-23T07:37:28.281Z,20.20
2023-04-23T07:39:57.484Z,15.50
2023-04-23T07:42:24.054Z,12.50
2023-04-23T07:44:53.147Z,15.90
2023-04-23T07:47:22.136Z,14.00
2023-04-23T07:49:56.952Z,17.60
2023-04-23T07:52:26.107Z,15.10
2023-04-23T07:54:52.901Z,10.70
2023-04-23T07:57:21.716Z,13.00
2023-04-23T07:59:57.052Z,16.70
2023-04-23T08:02:27.002Z,15.00
2023-04-23T08:04:56.134Z,13.00
2023-04-23T08:07:24.890Z,11.50
2023-04-23T08:10:02.118Z,12.20
2023-04-23T08:12:35.095Z,10.10
2023-04-23T08:15:04.449Z,11.30
2023-04-23T08:20:09.009Z,14.40
2023-04-23T08:22:38.063Z,10.80
2023-04-23T08:25:05.423Z,10.80
2023-04-23T08:27:39.053Z,11.10
2023-04-23T08:30:11.273Z,11.70
2023-04-23T08:32:43.601Z,11.60
2023-04-23T08:35:17.938Z,11.70
2023-04-23T08:37:44.961Z,13.30
2023-04-23T08:40:16.904Z,9.70
2023-04-23T08:42:54.653Z,10.90
2023-04-23T08:45:25.561Z,11.10
2023-04-23T08:48:02.461Z,9.40
2023-04-23T08:50:32.664Z,8.90
2023-04-23T08:53:44.033Z,8.60
2023-04-23T08:56:13.924Z,8.20
2023-04-23T08:58:43.279Z,11.70
2023-04-23T09:01:10.294Z,12.80
2023-04-23T09:03:37.480Z,11.30
2023-04-23T09:06:15.350Z,9.80
2023-04-23T09:08:42.005Z,10.10
2023-04-23T09:11:14.669Z,10.60
2023-04-23T09:13:41.246Z,8.10
2023-04-23T09:16:10.085Z,11.60
2023-04-23T09:18:47.379Z,11.70
2023-04-23T09:21:18.591Z,43.80
2023-04-23T09:23:52.889Z,49.40
2023-04-23T09:26:26.345Z,70.10
2023-04-23T09:28:53.253Z,25.20
2023-04-23T09:35:09.535Z,18.10
2023-04-23T09:37:55.348Z,36.70
2023-04-23T09:40:26.764Z,15.50
2023-04-23T09:42:56.198Z,10.40
2023-04-23T09:45:26.150Z,6.70
2023-04-23T09:47:59.526Z,11.80
2023-04-23T09:50:44.981Z,12.20
2023-04-23T09:53:15.572Z,11.80
2023-04-23T09:55:44.361Z,8.20
2023-04-23T09:58:15.530Z,9.80
2023-04-23T10:00:48.206Z,12.60
2023-04-23T10:06:00.344Z,12.30
2023-04-23T10:08:33.968Z,6.70
2023-04-23T10:11:19.871Z,9.80
2023-04-23T10:13:50.740Z,10.60
2023-04-23T10:16:25.237Z,9.10
2023-04-23T10:19:01.554Z,14.40
2023-04-23T10:21:46.282Z,11.50
2023-04-23T10:24:21.348Z,9.10
2023-04-23T10:26:49.365Z,6.50
2023-04-23T10:29:17.661Z,9.40
2023-04-23T10:31:45.521Z,7.50
2023-04-23T10:34:14.955Z,11.70
2023-04-23T10:36:46.140Z,6.40
2023-04-23T10:41:46.473Z,7.80
2023-04-23T10:44:38.589Z,6.60
2023-04-23T10:47:14.362Z,6.20
2023-04-23T10:49:44.075Z,6.00
2023-04-23T10:52:20.042Z,4.80
2023-04-23T10:54:56.221Z,7.60
2023-04-23T10:57:25.539Z,6.30
2023-04-23T10:59:54.181Z,6.70
2023-04-23T11:02:24.168Z,5.90
2023-04-23T11:05:06.377Z,5.90
2023-04-23T11:07:35.118Z,5.70
2023-04-23T11:10:17.226Z,4.70
2023-04-23T11:12:48.648Z,8.00
2023-04-23T11:15:18.728Z,7.30
2023-04-23T11:17:47.619Z,5.90
2023-04-23T11:20:21.337Z,10.20
2023-04-23T11:22:49.700Z,7.60
2023-04-23T11:25:26.448Z,6.10
2023-04-23T11:27:54.839Z,7.60
2023-04-23T11:30:43.485Z,6.00
2023-04-23T11:33:16.666Z,5.20
2023-04-23T11:36:16.706Z,5.90
2023-04-23T11:38:46.061Z,5.60
2023-04-23T11:41:13.331Z,9.40
2023-04-23T11:43:46.629Z,4.90
2023-04-23T11:46:14.372Z,3.60
2023-04-23T11:48:43.689Z,6.00
2023-04-23T11:51:15.417Z,4.60
2023-04-23T11:53:51.321Z,5.40
2023-04-23T11:56:19.450Z,5.70
2023-04-23T11:59:00.509Z,5.40
2023-04-23T12:01:27.500Z,5.00
2023-04-23T12:03:54.504Z,5.60
2023-04-23T12:06:21.217Z,5.90
2023-04-23T12:08:48.078Z,4.60
2023-04-23T12:11:14.643Z,7.00
2023-04-23T12:13:42.293Z,4.90
2023-04-23T12:16:11.466Z,5.40
2023-04-23T12:18:43.578Z,4.40
2023-04-23T12:21:12.961Z,5.90
2023-04-23T12:23:43.932Z,7.80
2023-04-23T12:26:11.917Z,6.30
2023-04-23T12:28:58.436Z,11.20
2023-04-23T12:31:29.069Z,4.90
2023-04-23T12:34:02.878Z,9.60
2023-04-23T12:36:32.904Z,6.90
2023-04-23T12:39:42.945Z,5.60
2023-04-23T12:42:14.700Z,4.20
2023-04-23T12:44:46.969Z,6.10
2023-04-23T12:47:17.002Z,4.30
2023-04-23T12:49:44.117Z,6.50
2023-04-23T12:52:15.366Z,5.40
2023-04-23T12:54:44.281Z,4.90
2023-04-23T12:57:12.334Z,6.30
2023-04-23T12:59:44.115Z,4.30
2023-04-23T13:02:14.817Z,6.60
2023-04-23T13:04:43.584Z,15.90
2023-04-23T13:07:10.253Z,6.20
2023-04-23T14:25:14.809Z,4.30
2023-04-23T14:27:49.378Z,4.60
2023-04-23T14:30:20.097Z,11.30
2023-04-23T14:32:49.746Z,4.40
2023-04-23T14:35:24.555Z,4.90
2023-04-23T14:37:58.707Z,7.90
2023-04-23T14:40:25.150Z,6.40
2023-04-23T14:42:56.949Z,3.30
2023-04-23T14:45:30.675Z,5.50
2023-04-23T14:48:05.705Z,4.40
2023-04-23T14:50:33.557Z,4.50
2023-04-23T14:53:02.992Z,4.90
2023-04-23T14:55:34.483Z,4.80
2023-04-23T14:58:03.348Z,5.90
2023-04-23T15:00:32.977Z,4.20
2023-04-23T15:03:07.841Z,4.10
2023-04-23T15:05:37.575Z,5.50
2023-04-23T15:08:06.513Z,10.10
2023-04-23T15:10:36.091Z,3.90
2023-04-23T15:13:08.701Z,3.80
2023-04-23T15:15:45.278Z,5.60
2023-04-23T15:18:16.445Z,6.00
2023-04-23T15:21:03.128Z,5.70
2023-04-23T15:23:30.999Z,6.10
2023-04-23T15:26:00.071Z,5.30
2023-04-23T15:58:21.676Z,4.50
2023-04-23T16:00:48.338Z,3.90
2023-04-23T16:03:17.277Z,6.10
2023-04-23T16:05:47.434Z,2.90
2023-04-23T16:08:16.771Z,3.40
2023-04-23T16:10:43.197Z,6.20
2023-04-23T16:13:14.279Z,3.50
2023-04-23T16:15:44.393Z,3.60
2023-04-23T16:18:13.398Z,3.90
2023-04-23T16:20:39.920Z,6.30
2023-04-23T16:23:08.966Z,5.70
2023-04-23T16:25:37.840Z,3.30
2023-04-23T16:28:04.673Z,8.80
2023-04-23T16:30:31.317Z,3.80
2023-04-23T17:22:58.194Z,15.80
2023-04-23T17:25:26.559Z,9.10
2023-04-23T17:27:57.968Z,9.80
2023-04-23T17:30:27.486Z,10.20
2023-04-23T17:32:54.320Z,11.00
2023-04-23T17:35:23.407Z,5.20
2023-04-23T17:37:52.521Z,5.10
2023-04-23T17:40:19.419Z,13.50
2023-04-23T17:42:46.560Z,7.10
2023-04-23T17:45:13.389Z,5.60
2023-04-23T17:47:58.453Z,6.70
2023-04-23T17:50:27.667Z,7.40
2023-04-23T17:52:54.262Z,6.60
2023-04-23T17:55:21.382Z,4.80
2023-04-23T17:57:48.292Z,6.90
2023-04-23T18:00:16.910Z,5.60
2023-04-23T18:02:44.573Z,10.90
2023-04-23T18:05:16.090Z,5.10
2023-04-23T18:07:43.917Z,10.80
2023-04-23T18:10:11.643Z,8.10
2023-04-23T18:12:48.606Z,6.40
2023-04-23T18:15:38.458Z,9.90
2023-04-23T18:18:05.807Z,8.20
2023-04-23T18:20:37.620Z,6.70
2023-04-23T18:23:05.938Z,8.20
2023-04-23T18:25:32.914Z,7.30
2023-04-23T18:28:00.654Z,9.60
2023-04-23T18:30:27.533Z,7.70
2023-04-23T18:33:40.963Z,8.50
2023-04-23T18:36:31.037Z,10.70
2023-04-23T18:38:58.267Z,10.40
2023-04-23T18:41:59.104Z,8.50
2023-04-23T18:44:28.227Z,15.50
2023-04-23T18:46:55.274Z,12.30
2023-04-23T18:49:33.539Z,8.30
2023-04-23T18:52:01.505Z,10.90
2023-04-23T18:54:30.318Z,11.90
2023-04-23T18:56:57.628Z,10.70
2023-04-23T18:59:48.005Z,11.30
2023-04-23T19:02:24.684Z,14.20
2023-04-23T19:05:01.634Z,12.60
2023-04-23T19:07:49.708Z,7.30
2023-04-23T19:10:17.006Z,8.20
2023-04-23T19:12:44.172Z,7.30
2023-04-23T19:15:11.212Z,7.50
2023-04-23T19:17:38.128Z,7.50
2023-04-23T19:20:14.381Z,8.30
2023-04-23T19:22:42.319Z,9.10
2023-04-23T19:25:09.691Z,6.90
2023-04-23T19:27:41.024Z,9.20
2023-04-23T19:30:09.704Z,12.50
2023-04-23T19:32:38.642Z,7.50
2023-04-23T19:35:12.124Z,8.20
2023-04-23T19:37:41.528Z,9.40
2023-04-23T19:40:09.961Z,9.60
2023-04-23T19:42:36.557Z,7.20
2023-04-23T19:45:07.115Z,7.10
2023-04-23T19:47:38.001Z,8.50
2023-04-23T19:50:10.123Z,8.40
2023-04-23T19:52:39.533Z,7.50
2023-04-23T19:55:09.406Z,9.30
2023-04-23T19:57:40.210Z,7.80
2023-04-23T20:00:11.365Z,7.70
2023-04-23T20:02:42.836Z,9.00
2023-04-23T20:05:09.944Z,12.10
2023-04-23T20:07:37.647Z,11.20
2023-04-23T20:10:09.802Z,10.50
2023-04-23T20:12:36.729Z,8.40
2023-04-23T20:15:05.036Z,10.40
2023-04-23T20:17:56.829Z,11.60
2023-04-23T20:20:31.149Z,9.90
2023-04-23T20:22:58.579Z,11.20
2023-04-23T20:25:25.967Z,9.80
2023-04-23T20:27:56.279Z,9.30
2023-04-23T20:30:23.224Z,10.20
2023-04-23T20:32:50.648Z,10.00
2023-04-23T20:35:18.690Z,16.30
2023-04-23T20:37:46.008Z,14.30
2023-04-23T20:40:14.162Z,9.90
2023-04-23T20:42:41.918Z,7.90
2023-04-23T20:45:12.562Z,8.30
2023-04-23T20:47:39.524Z,11.50
2023-04-23T20:50:06.841Z,11.70
2023-04-23T20:52:35.649Z,9.00
2023-04-23T20:55:03.171Z,11.30
2023-04-23T20:57:33.410Z,10.00
2023-04-23T21:00:13.979Z,12.30
2023-04-23T21:02:47.560Z,15.00
2023-04-23T21:05:21.644Z,13.30
2023-04-23T21:07:53.947Z,14.50
2023-04-23T21:10:39.355Z,15.50
2023-04-23T21:13:12.233Z,14.80
2023-04-23T21:15:48.382Z,16.80
2023-04-23T21:18:20.932Z,16.70
2023-04-23T21:20:58.690Z,20.30
2023-04-23T21:23:28.067Z,16.10
2023-04-23T21:26:09.780Z,31.60
2023-04-23T21:28:44.111Z,34.00
2023-04-23T21:31:21.674Z,43.60
2023-04-23T21:33:48.616Z,40.70
2023-04-23T21:36:15.564Z,40.00
2023-04-23T21:38:42.432Z,37.40
2023-04-23T21:41:11.749Z,35.40
2023-04-23T21:43:41.634Z,41.00
2023-04-23T21:46:08.679Z,47.70
2023-04-23T21:48:36.190Z,45.20
2023-04-23T21:51:03.239Z,45.10
